Elk City, OK

8:35 AM CST on February 28, 2015 (GMT -0600)
Clinton-Sherman | Change Station
CLOSE
Current Station
Airport
Location: Clinton-Sherman,
Elevation: 1923 ft
Nearby Weather Stations
Active Advisory: Winter Weather Advisory Active Notice: Record Report, Local Storm Report

Elev 1923 ft 35.34 °N, 99.20 °W | Updated 14 minutes ago

Overcast
Overcast
18 °F
Feels Like 9 °F
N
7
Wind Variable Wind from East

Today
High -- | Low -- °F
--% Chance of Precip.
Yesterday
High -- | Low -- °F
Precip. -- in
7:08 AM 6:31 PM
Waxing Gibbous, 78% visible
Pressure 30.33 in
Visibility 1.0 miles
Clouds
Windchill 9 °F
Dew Point 14 °F
Humidity 84%
Rainfall 0.00 in
Snow Depth Not available.
UV Not available.
Pollen .80 out of 12
Air Quality Not available.
Flu Activity Not available.
SPECI KCSM 281421Z AUTO 10006KT 1SM -SN BR VV020 M08/M10 A3033 RMK AO2 P0001 T10781100

More Conditions Fewer Conditions

Pressure 30.33 in
Visibility 1.0 miles
Clouds
Windchill 9 °F
Dew Point 14 °F
Humidity 84%
Rainfall 0.00 in
Snow Depth Not available.
UV Not available.
Pollen .80 out of 12
Air Quality Not available.
Flu Activity Not available.
SPECI KCSM 281421Z AUTO 10006KT 1SM -SN BR VV020 M08/M10 A3033 RMK AO2 P0001 T10781100

More Conditions Fewer Conditions

10-Day Weather Forecast

Almanac

Astronomy

Feb. 28, 2015 Rise Set
Actual Time
Civil Twilight
Nautical Twilight
Astronomical Twilight
Moon
Length of Visible Light
Length of Day
Tomorrow will be .
, % of the Moon is Illuminated

Today's Extremes

State Highs State Lows

Community

WunderPhotos

Upload Photos

1,801,022 photos uploaded!

WunderBlogs® & News

Nearby

Air Quality

  Air Quality AQ Index Pollutant
Not available.

Snow Depth

Station Depth Elevation

Earthquake Activity

City Distance Mag. Time & Date
Minimum magnitude displayed is 2.5.

Coastal Water Temperatures

Place Temperature

Nearby Weather Stations

Winter Weather Advisory
Statement as of 4:00 AM CST on February 28, 2015

... Winter Weather Advisory now in effect until noon CST today...

* main impact: 1 to 2 inches of new snow this morning.

* Other impacts: roads will be slick and hazardous into the
evening.

Precautionary/preparedness actions...

Be careful if you have to travel. Even small amounts of ice and
snow can make roads and sidewalks slick and dangerous.